Time,TemperatureF,DewpointF,PressureIn,WindDirection,WindDirectionDegrees,WindSpeedMPH,WindSpeedGustMPH,Humidity,HourlyPrecipIn,Conditions,Clouds,dailyrainin,SoftwareType,DateUTC
2013-04-06 00:02:00,56.9,44.0,29.92,South,178,1.0,12.0,63,0.00,,,0.00,weatherlink.com 1.10,2013-04-06 06:02:00,
2013-04-06 00:17:00,56.3,45.0,29.93,SE,133,4.0,11.0,65,0.00,,,0.00,weatherlink.com 1.10,2013-04-06 06:17:00,
2013-04-06 00:32:00,55.8,44.0,29.93,SE,135,3.0,9.0,66,0.00,,,0.00,weatherlink.com 1.10,2013-04-06 06:32:00,
2013-04-06 01:02:00,55.3,45.0,29.91,SSE,150,5.0,10.0,68,0.00,,,0.00,weatherlink.com 1.10,2013-04-06 07:02:00,
2013-04-06 01:17:00,55.0,45.0,29.91,SSE,148,5.0,9.0,68,0.00,,,0.00,weatherlink.com 1.10,2013-04-06 07:17:00,
2013-04-06 01:32:00,55.3,45.0,29.91,SE,146,3.0,13.0,68,0.00,,,0.00,weatherlink.com 1.10,2013-04-06 07:32:00,
2013-04-06 01:47:00,55.1,45.0,29.90,SSE,156,3.0,13.0,69,0.00,,,0.00,weatherlink.com 1.10,2013-04-06 07:47:00,
2013-04-06 02:02:00,54.9,45.0,29.89,South,190,3.0,13.0,70,0.00,,,0.00,weatherlink.com 1.10,2013-04-06 08:02:00,
2013-04-06 02:17:00,54.7,45.0,29.88,SE,144,5.0,12.0,70,0.00,,,0.00,weatherlink.com 1.10,2013-04-06 08:17:00,
2013-04-06 02:32:00,54.7,45.0,29.88,SSE,157,4.0,13.0,71,0.00,,,0.00,weatherlink.com 1.10,2013-04-06 08:32:00,
2013-04-06 02:47:00,54.5,45.0,29.87,SSE,151,3.0,13.0,71,0.00,,,0.00,weatherlink.com 1.10,2013-04-06 08:47:00,
2013-04-06 03:02:00,54.4,46.0,29.86,SSE,155,0.0,11.0,72,0.00,,,0.00,weatherlink.com 1.10,2013-04-06 09:02:00,
2013-04-06 03:17:00,54.3,46.0,29.87,SW,221,3.0,8.0,73,0.00,,,0.00,weatherlink.com 1.10,2013-04-06 09:17:00,
2013-04-06 03:32:00,54.8,46.0,29.87,SE,141,5.0,12.0,72,0.00,,,0.00,weatherlink.com 1.10,2013-04-06 09:32:00,
2013-04-06 03:47:00,54.9,46.0,29.86,South,170,7.0,14.0,72,0.00,,,0.00,weatherlink.com 1.10,2013-04-06 09:47:00,
2013-04-06 04:02:00,55.2,46.0,29.87,SSE,167,0.0,12.0,71,0.00,,,0.00,weatherlink.com 1.10,2013-04-06 10:02:00,
2013-04-06 04:17:00,55.4,46.0,29.88,South,175,0.0,7.0,71,0.00,,,0.00,weatherlink.com 1.10,2013-04-06 10:17:00,
2013-04-06 04:32:00,55.0,46.0,29.87,SSE,165,2.0,10.0,72,0.00,,,0.00,weatherlink.com 1.10,2013-04-06 10:32:00,
2013-04-06 04:47:00,54.4,46.0,29.87,SSE,163,3.0,11.0,74,0.00,,,0.00,weatherlink.com 1.10,2013-04-06 10:47:00,
2013-04-06 05:02:00,54.9,46.0,29.87,SSE,163,7.0,8.0,73,0.00,,,0.00,weatherlink.com 1.10,2013-04-06 11:02:00,
2013-04-06 05:17:00,55.1,47.0,29.87,South,190,3.0,12.0,73,0.00,,,0.00,weatherlink.com 1.10,2013-04-06 11:17:00,
2013-04-06 05:32:00,54.8,47.0,29.88,SW,214,0.0,7.0,74,0.00,,,0.00,weatherlink.com 1.10,2013-04-06 11:32:00,
2013-04-06 05:47:00,54.6,47.0,29.88,SSW,192,0.0,2.0,75,0.00,,,0.00,weatherlink.com 1.10,2013-04-06 11:47:00,
2013-04-06 06:02:00,54.5,47.0,29.88,SSW,209,0.0,4.0,76,0.00,,,0.00,weatherlink.com 1.10,2013-04-06 12:02:00,
2013-04-06 06:17:00,55.0,47.0,29.88,SSE,159,0.0,10.0,75,0.00,,,0.00,weatherlink.com 1.10,2013-04-06 12:17:00,
2013-04-06 06:33:00,55.8,48.0,29.88,SSE,159,8.0,11.0,74,0.00,,,0.00,weatherlink.com 1.10,2013-04-06 12:33:00,
2013-04-06 06:48:00,56.3,48.0,29.88,South,169,4.0,12.0,73,0.00,,,0.00,weatherlink.com 1.10,2013-04-06 12:48:00,
2013-04-06 07:03:00,56.4,48.0,29.86,SSE,153,3.0,18.0,73,0.00,,,0.00,weatherlink.com 1.10,2013-04-06 13:03:00,
2013-04-06 07:18:00,56.8,48.0,29.86,SSE,161,7.0,17.0,73,0.00,,,0.00,weatherlink.com 1.10,2013-04-06 13:18:00,
2013-04-06 07:33:00,57.2,49.0,29.89,SSW,196,4.0,10.0,73,0.00,,,0.00,weatherlink.com 1.10,2013-04-06 13:33:00,
2013-04-06 07:48:00,58.3,49.0,29.91,SSE,159,11.0,11.0,71,0.00,,,0.00,weatherlink.com 1.10,2013-04-06 13:48:00,
2013-04-06 08:03:00,58.6,49.0,29.90,SSE,150,5.0,10.0,70,0.00,,,0.00,weatherlink.com 1.10,2013-04-06 14:03:00,
2013-04-06 08:18:00,58.5,49.0,29.89,South,184,9.0,14.0,70,0.00,,,0.00,weatherlink.com 1.10,2013-04-06 14:18:00,
2013-04-06 08:33:00,59.2,49.0,29.88,South,171,7.0,13.0,70,0.00,,,0.00,weatherlink.com 1.10,2013-04-06 14:33:00,
2013-04-06 08:48:00,60.1,50.0,29.86,SSE,150,3.0,18.0,69,0.00,,,0.00,weatherlink.com 1.10,2013-04-06 14:48:00,
2013-04-06 09:03:00,61.3,50.0,29.84,SE,126,6.0,18.0,67,0.00,,,0.00,weatherlink.com 1.10,2013-04-06 15:03:00,
2013-04-06 09:18:00,62.3,50.0,29.85,SW,217,9.0,20.0,65,0.00,,,0.00,weatherlink.com 1.10,2013-04-06 15:18:00,
2013-04-06 09:33:00,63.8,50.0,29.84,SSW,196,7.0,22.0,61,0.00,,,0.00,weatherlink.com 1.10,2013-04-06 15:33:00,
2013-04-06 09:48:00,64.4,50.0,29.84,South,188,7.0,23.0,60,0.00,,,0.00,weatherlink.com 1.10,2013-04-06 15:48:00,
2013-04-06 10:03:00,65.4,51.0,29.84,South,183,7.0,25.0,59,0.00,,,0.00,weatherlink.com 1.10,2013-04-06 16:03:00,
2013-04-06 10:18:00,66.5,50.0,29.84,SE,129,8.0,26.0,55,0.00,,,0.00,weatherlink.com 1.10,2013-04-06 16:18:00,
2013-04-06 10:33:00,67.7,50.0,29.83,SSW,194,5.0,25.0,54,0.00,,,0.00,weatherlink.com 1.10,2013-04-06 16:33:00,
2013-04-06 10:48:00,68.1,50.0,29.83,South,169,7.0,25.0,52,0.00,,,0.00,weatherlink.com 1.10,2013-04-06 16:48:00,
2013-04-06 11:03:00,69.8,51.0,29.83,South,182,5.0,21.0,52,0.00,,,0.00,weatherlink.com 1.10,2013-04-06 17:03:00,
2013-04-06 11:18:00,70.6,49.0,29.82,South,169,13.0,22.0,47,0.00,,,0.00,weatherlink.com 1.10,2013-04-06 17:18:00,
2013-04-06 11:33:00,70.8,49.0,29.82,South,169,11.0,24.0,47,0.00,,,0.00,weatherlink.com 1.10,2013-04-06 17:33:00,
2013-04-06 11:48:00,72.3,50.0,29.81,SW,229,10.0,26.0,46,0.00,,,0.00,weatherlink.com 1.10,2013-04-06 17:48:00,
2013-04-06 12:03:00,72.5,50.0,29.81,SSW,194,7.0,22.0,46,0.00,,,0.00,weatherlink.com 1.10,2013-04-06 18:03:00,
2013-04-06 12:18:00,72.0,50.0,29.82,SW,234,6.0,23.0,46,0.00,,,0.00,weatherlink.com 1.10,2013-04-06 18:18:00,
2013-04-06 12:33:00,72.1,50.0,29.81,SW,221,9.0,22.0,46,0.00,,,0.00,weatherlink.com 1.10,2013-04-06 18:33:00,
2013-04-06 12:48:00,72.8,51.0,29.80,SSW,207,4.0,20.0,47,0.00,,,0.00,weatherlink.com 1.10,2013-04-06 18:48:00,
2013-04-06 13:03:00,73.0,51.0,29.80,South,179,8.0,22.0,46,0.00,,,0.00,weatherlink.com 1.10,2013-04-06 19:03:00,
2013-04-06 13:18:00,73.4,51.0,29.80,SSE,168,10.0,21.0,46,0.00,,,0.00,weatherlink.com 1.10,2013-04-06 19:18:00,
2013-04-06 13:49:00,74.2,50.0,29.78,South,190,8.0,19.0,43,0.00,,,0.00,weatherlink.com 1.10,2013-04-06 19:49:00,
2013-04-06 14:04:00,75.4,51.0,29.78,SSW,202,3.0,17.0,42,0.00,,,0.00,weatherlink.com 1.10,2013-04-06 20:04:00,
2013-04-06 14:19:00,75.9,51.0,29.77,South,182,5.0,15.0,42,0.00,,,0.00,weatherlink.com 1.10,2013-04-06 20:19:00,
2013-04-06 14:34:00,75.6,51.0,29.77,South,184,7.0,13.0,42,0.00,,,0.00,weatherlink.com 1.10,2013-04-06 20:34:00,
2013-04-06 14:49:00,76.0,51.0,29.76,South,174,8.0,16.0,42,0.00,,,0.00,weatherlink.com 1.10,2013-04-06 20:49:00,
2013-04-06 15:04:00,76.5,50.0,29.76,SW,219,3.0,15.0,40,0.00,,,0.00,weatherlink.com 1.10,2013-04-06 21:04:00,
2013-04-06 15:49:00,76.4,51.0,29.75,WSW,240,3.0,13.0,41,0.00,,,0.00,weatherlink.com 1.10,2013-04-06 21:49:00,
2013-04-06 16:04:00,76.0,51.0,29.76,WSW,254,4.0,15.0,42,0.00,,,0.00,weatherlink.com 1.10,2013-04-06 22:04:00,
2013-04-06 16:19:00,75.1,51.0,29.76,SSW,209,1.0,12.0,43,0.00,,,0.00,weatherlink.com 1.10,2013-04-06 22:19:00,
2013-04-06 17:04:00,73.9,51.0,29.78,SSW,211,5.0,15.0,45,0.00,,,0.00,weatherlink.com 1.10,2013-04-06 23:04:00,
2013-04-06 17:19:00,73.7,51.0,29.77,SSW,201,5.0,16.0,45,0.00,,,0.00,weatherlink.com 1.10,2013-04-06 23:19:00,
2013-04-06 17:34:00,73.2,52.0,29.78,SW,221,2.0,10.0,47,0.00,,,0.00,weatherlink.com 1.10,2013-04-06 23:34:00,
2013-04-06 17:49:00,73.1,52.0,29.78,SW,220,7.0,12.0,47,0.00,,,0.00,weatherlink.com 1.10,2013-04-06 23:49:00,
2013-04-06 18:04:00,72.2,52.0,29.78,SSW,212,4.0,7.0,49,0.00,,,0.00,weatherlink.com 1.10,2013-04-07 00:04:00,
2013-04-06 18:19:00,71.0,52.0,29.78,SSW,212,0.0,2.0,52,0.00,,,0.00,weatherlink.com 1.10,2013-04-07 00:19:00,
2013-04-06 18:34:00,70.1,52.0,29.79,SSW,212,0.0,0.0,53,0.00,,,0.00,weatherlink.com 1.10,2013-04-07 00:34:00,
2013-04-06 19:19:00,67.5,52.0,29.79,SSW,212,0.0,0.0,58,0.00,,,0.00,weatherlink.com 1.10,2013-04-07 01:19:00,
2013-04-06 19:34:00,67.0,52.0,29.79,SSW,212,0.0,0.0,59,0.00,,,0.00,weatherlink.com 1.10,2013-04-07 01:34:00,
2013-04-06 19:49:00,66.6,52.0,29.80,SSW,212,1.0,2.0,60,0.00,,,0.00,weatherlink.com 1.10,2013-04-07 01:49:00,
2013-04-06 20:04:00,66.1,52.0,29.80,SSW,212,1.0,3.0,60,0.00,,,0.00,weatherlink.com 1.10,2013-04-07 02:04:00,
2013-04-06 20:19:00,65.7,52.0,29.80,South,170,0.0,3.0,61,0.00,,,0.00,weatherlink.com 1.10,2013-04-07 02:19:00,
2013-04-06 20:34:00,65.9,51.0,29.81,South,186,1.0,6.0,60,0.00,,,0.00,weatherlink.com 1.10,2013-04-07 02:34:00,
2013-04-06 20:49:00,65.3,51.0,29.81,South,188,2.0,5.0,61,0.00,,,0.00,weatherlink.com 1.10,2013-04-07 02:49:00,
2013-04-06 21:04:00,65.0,52.0,29.82,SSW,196,2.0,4.0,62,0.00,,,0.00,weatherlink.com 1.10,2013-04-07 03:04:00,
2013-04-06 21:19:00,64.5,51.0,29.83,South,188,0.0,5.0,63,0.00,,,0.00,weatherlink.com 1.10,2013-04-07 03:19:00,
2013-04-06 21:49:00,63.4,51.0,29.84,SSW,208,0.0,3.0,65,0.00,,,0.00,weatherlink.com 1.10,2013-04-07 03:49:00,
2013-04-06 22:04:00,62.4,51.0,29.84,SSW,208,0.0,0.0,67,0.00,,,0.00,weatherlink.com 1.10,2013-04-07 04:04:00,
2013-04-06 22:19:00,61.2,51.0,29.84,SSW,208,0.0,0.0,70,0.00,,,0.00,weatherlink.com 1.10,2013-04-07 04:19:00,
2013-04-06 22:34:00,60.9,51.0,29.84,SSW,208,0.0,0.0,70,0.00,,,0.00,weatherlink.com 1.10,2013-04-07 04:34:00,
2013-04-06 22:49:00,60.0,51.0,29.84,SSW,208,0.0,0.0,73,0.00,,,0.00,weatherlink.com 1.10,2013-04-07 04:49:00,
2013-04-06 23:04:00,59.5,51.0,29.84,SSW,208,0.0,0.0,74,0.00,,,0.00,weatherlink.com 1.10,2013-04-07 05:04:00,
2013-04-06 23:19:00,59.6,51.0,29.84,SSW,208,0.0,0.0,74,0.00,,,0.00,weatherlink.com 1.10,2013-04-07 05:19:00,
2013-04-06 23:34:00,61.3,52.0,29.84,SSW,208,0.0,0.0,71,0.00,,,0.00,weatherlink.com 1.10,2013-04-07 05:34:00,
2013-04-06 23:49:00,60.5,51.0,29.84,SSW,208,0.0,0.0,72,0.00,,,0.00,weatherlink.com 1.10,2013-04-07 05:49:00,